Time;durP1;ratioP1;P1;durP2;ratioP2;P2;SDS_P1;SDS_P2;PMS_P1;PMS_P2;Temp;Humidity;BMP_temperature;BMP_pressure;BME280_temperature;BME280_humidity;BME280_pressure;Samples;Min_cycle;Max_cycle;Signal;HPM_P1;HPM_P2
2024/04/13 00:01:20;;;;;;;7.23;5.17;;;;;;;14.05;65.79;154969.03;5413209;26;20280;-76
2024/04/13 00:03:50;;;;;;;6.00;4.00;;;;;;;14.04;65.81;154967.72;5418889;26;20954;-77
2024/04/13 00:06:16;;;;;;;5.17;4.00;;;;;;;14.02;65.92;154962.56;5374904;26;20270;-77
2024/04/13 00:08:44;;;;;;;9.53;4.10;;;;;;;13.97;65.34;154949.56;5405032;26;20632;-77
2024/04/13 00:11:09;;;;;;;5.50;3.70;;;;;;;13.90;65.19;154931.38;5386238;26;20242;-76
2024/04/13 00:13:38;;;;;;;4.53;4.10;;;;;;;13.93;66.77;154939.16;5379762;26;20534;-76
2024/04/13 00:16:07;;;;;;;5.77;5.23;;;;;;;14.04;66.76;154966.41;5411871;26;20238;-76
2024/04/13 00:18:35;;;;;;;4.90;4.40;;;;;;;14.09;66.98;154978.09;5434847;26;20593;-76
2024/04/13 00:21:01;;;;;;;5.00;3.93;;;;;;;14.11;66.78;154983.31;5420136;26;20785;-76
2024/04/13 00:23:31;;;;;;;7.97;5.40;;;;;;;14.07;66.25;154972.91;5405276;26;20524;-76
2024/04/13 00:25:57;;;;;;;4.97;4.57;;;;;;;13.92;66.59;154936.59;5409751;26;20564;-76
2024/04/13 00:28:25;;;;;;;5.60;4.17;;;;;;;13.79;66.65;154901.53;5413084;26;20908;-77
2024/04/13 00:30:51;;;;;;;5.37;4.87;;;;;;;13.71;67.11;154880.78;5374973;26;20276;-76
2024/04/13 00:33:21;;;;;;;5.53;4.17;;;;;;;13.66;67.63;154867.78;5406365;26;20472;-76
2024/04/13 00:35:49;;;;;;;5.13;4.63;;;;;;;13.60;67.66;154853.50;5424679;26;20241;-75
2024/04/13 00:38:17;;;;;;;5.17;4.67;;;;;;;13.56;67.99;154843.09;5422125;26;20547;-76
2024/04/13 00:40:43;;;;;;;5.63;4.83;;;;;;;13.50;67.60;154826.25;5422856;26;20591;-76
2024/04/13 00:43:12;;;;;;;5.50;4.60;;;;;;;13.43;68.81;154809.38;5429914;26;21017;-76
2024/04/13 00:45:42;;;;;;;5.37;4.87;;;;;;;13.40;67.87;154802.88;5394504;26;20234;-76
2024/04/13 00:48:11;;;;;;;6.30;5.30;;;;;;;13.35;69.00;154788.59;5423299;26;20520;-76
2024/04/13 00:50:40;;;;;;;7.47;5.00;;;;;;;13.28;69.26;154771.75;5412997;26;20997;-75
2024/04/13 00:53:11;;;;;;;5.33;4.60;;;;;;;13.26;70.12;154765.28;5391637;26;20485;-76
2024/04/13 00:55:36;;;;;;;4.77;4.37;;;;;;;13.19;70.17;154748.38;5368718;26;20465;-75
2024/04/13 00:58:07;;;;;;;6.27;4.80;;;;;;;13.15;69.92;154738.03;5399978;26;20524;-76
2024/04/13 01:00:33;;;;;;;6.73;4.60;;;;;;;13.10;70.65;154725.06;5405563;26;20464;-76
2024/04/13 01:03:01;;;;;;;6.20;4.97;;;;;;;13.07;70.97;154717.25;5370701;26;20526;-76
2024/04/13 01:05:27;;;;;;;8.60;5.23;;;;;;;13.04;71.12;154709.44;5418334;26;21013;-76
2024/04/13 01:07:58;;;;;;;5.23;4.50;;;;;;;13.02;71.21;154704.25;5420012;26;20499;-75
2024/04/13 01:10:24;;;;;;;5.97;4.60;;;;;;;12.98;71.66;154693.84;5389241;26;20235;-76
2024/04/13 01:12:53;;;;;;;7.20;4.80;;;;;;;12.96;71.93;154688.66;5424850;26;20835;-76
2024/04/13 01:15:18;;;;;;;6.93;5.30;;;;;;;12.93;71.97;154679.56;5376036;26;20683;-76
2024/04/13 01:17:47;;;;;;;5.77;5.17;;;;;;;12.97;72.25;154689.97;5385838;26;20461;-76
2024/04/13 01:20:12;;;;;;;7.30;5.40;;;;;;;12.96;71.69;154688.66;5397107;26;20239;-76
2024/04/13 01:22:43;;;;;;;6.10;5.47;;;;;;;12.94;71.72;154682.19;5400240;26;20537;-75
2024/04/13 01:25:13;;;;;;;8.00;5.20;;;;;;;12.93;71.94;154679.56;5385907;26;20675;-76
2024/04/13 01:27:42;;;;;;;5.90;4.63;;;;;;;12.89;72.06;154669.22;5372135;26;20815;-75
2024/04/13 01:30:09;;;;;;;6.53;4.90;;;;;;;12.83;72.19;154654.94;5416470;26;20490;-75
2024/04/13 01:32:38;;;;;;;6.53;5.13;;;;;;;12.78;72.79;154641.97;5429931;26;20573;-75
2024/04/13 01:35:08;;;;;;;4.63;4.23;;;;;;;12.72;72.82;154627.72;5422397;26;20525;-75
2024/04/13 01:37:37;;;;;;;4.73;4.20;;;;;;;12.70;72.79;154621.22;5427243;26;20476;-75
2024/04/13 01:40:03;;;;;;;7.43;4.87;;;;;;;12.68;73.32;154616.03;5415481;26;20513;-76
2024/04/13 01:42:34;;;;;;;6.87;5.40;;;;;;;12.68;73.14;154616.03;5412259;26;20522;-76
2024/04/13 01:44:59;;;;;;;8.33;6.10;;;;;;;12.69;73.91;154618.63;5377897;26;20473;-75
2024/04/13 01:47:28;;;;;;;6.00;5.40;;;;;;;12.70;73.39;154621.22;5435615;26;20503;-76
2024/04/13 01:49:54;;;;;;;5.50;4.87;;;;;;;12.69;73.17;154618.63;5397851;26;20336;-76
2024/04/13 01:52:22;;;;;;;6.80;5.50;;;;;;;12.66;73.34;154610.81;5429638;26;20485;-75
2024/04/13 01:54:48;;;;;;;5.80;4.60;;;;;;;12.65;73.70;154609.56;5412003;26;20789;-76
2024/04/13 01:57:16;;;;;;;8.37;4.77;;;;;;;12.63;73.57;154604.34;5430813;26;20517;-75
2024/04/13 01:59:45;;;;;;;7.73;5.97;;;;;;;12.62;73.63;154600.47;5423710;26;20648;-76
2024/04/13 02:02:13;;;;;;;7.47;5.43;;;;;;;12.60;73.89;154596.56;5422839;26;20924;-76
2024/04/13 02:04:39;;;;;;;5.97;5.37;;;;;;;12.62;73.98;154601.78;5421409;26;20516;-75
2024/04/13 02:07:07;;;;;;;6.10;5.50;;;;;;;12.62;73.75;154601.78;5417623;26;20468;-75
2024/04/13 02:09:33;;;;;;;8.00;5.80;;;;;;;12.62;74.21;154600.47;5414999;26;20245;-75
2024/04/13 02:12:02;;;;;;;7.30;6.50;;;;;;;12.59;74.22;154592.69;5423602;26;20463;-75
2024/04/13 02:14:27;;;;;;;7.13;5.97;;;;;;;12.59;74.15;154592.69;5416332;26;20512;-75
2024/04/13 02:16:58;;;;;;;10.30;7.47;;;;;;;12.59;74.32;154594.00;5422246;26;20471;-75
2024/04/13 02:19:24;;;;;;;8.00;7.20;;;;;;;12.57;74.92;154588.81;5417903;26;20626;-74
2024/04/13 02:21:52;;;;;;;9.67;7.17;;;;;;;12.56;74.85;154584.91;5369281;26;20473;-75
2024/04/13 02:24:18;;;;;;;9.10;7.73;;;;;;;12.53;75.32;154578.41;5408295;26;20717;-75
2024/04/13 02:26:46;;;;;;;9.43;7.40;;;;;;;12.47;75.39;154562.84;5413526;26;20464;-75
2024/04/13 02:29:12;;;;;;;8.00;7.20;;;;;;;12.46;75.12;154558.97;5406212;26;20257;-75
2024/04/13 02:31:40;;;;;;;8.40;7.60;;;;;;;12.43;75.94;154551.19;5384894;26;20509;-75
2024/04/13 02:34:08;;;;;;;9.93;7.97;;;;;;;12.41;76.23;154546.00;5424710;26;20757;-75
2024/04/13 02:36:38;;;;;;;11.67;8.10;;;;;;;12.41;76.54;154546.00;5376282;26;20495;-75
2024/04/13 02:39:07;;;;;;;8.77;7.20;;;;;;;12.42;76.27;154548.56;5422202;26;20491;-76
2024/04/13 02:41:35;;;;;;;9.07;7.83;;;;;;;12.36;76.24;154533.03;5408202;26;20480;-77
2024/04/13 02:44:01;;;;;;;10.10;8.00;;;;;;;12.27;76.42;154509.69;5414406;26;20528;-77
2024/04/13 02:46:29;;;;;;;9.33;8.40;;;;;;;12.21;76.73;154496.72;5386971;26;20469;-77
2024/04/13 02:48:55;;;;;;;9.50;7.93;;;;;;;12.19;77.66;154491.56;5408833;26;20242;-77
2024/04/13 02:51:26;;;;;;;8.87;7.83;;;;;;;12.17;77.92;154486.38;5385993;26;20508;-77
2024/04/13 02:53:51;;;;;;;11.10;8.70;;;;;;;12.16;78.27;154483.78;5426802;26;20694;-76
2024/04/13 02:56:19;;;;;;;11.00;8.57;;;;;;;12.16;78.44;154483.78;5382241;26;20465;-76
2024/04/13 02:58:46;;;;;;;8.70;7.77;;;;;;;12.13;78.38;154475.97;5410529;26;20294;-76
2024/04/13 03:01:14;;;;;;;9.17;7.77;;;;;;;12.13;78.15;154475.97;5418985;26;21056;-76
2024/04/13 03:03:40;;;;;;;11.30;9.93;;;;;;;12.16;78.11;154483.78;5413307;26;20603;-76
2024/04/13 03:06:11;;;;;;;9.87;8.83;;;;;;;12.16;78.34;154482.47;5407915;26;20472;-76
2024/04/13 03:08:39;;;;;;;10.03;8.90;;;;;;;12.14;78.69;154477.28;5395181;26;20273;-77
2024/04/13 03:11:08;;;;;;;9.57;8.33;;;;;;;12.10;78.91;154468.19;5397263;26;20475;-76
2024/04/13 03:13:34;;;;;;;9.67;8.77;;;;;;;12.09;79.23;154465.63;5434803;26;20520;-77
2024/04/13 03:16:03;;;;;;;8.73;7.83;;;;;;;12.08;79.00;154463.03;5422678;26;20471;-76
2024/04/13 03:18:30;;;;;;;9.20;8.27;;;;;;;12.04;78.94;154452.69;5418476;26;20480;-76
2024/04/13 03:20:58;;;;;;;8.63;7.83;;;;;;;12.09;78.67;154465.63;5425247;26;20468;-76
2024/04/13 03:23:25;;;;;;;11.07;8.67;;;;;;;12.11;78.51;154470.81;5408008;26;20521;-77
2024/04/13 03:25:57;;;;;;;8.70;7.90;;;;;;;12.07;78.55;154460.41;5381950;26;20472;-75
2024/04/13 03:28:25;;;;;;;9.80;8.40;;;;;;;12.02;78.83;154446.19;5420732;26;20479;-74
2024/04/13 03:30:53;;;;;;;11.23;9.00;;;;;;;11.97;78.98;154434.50;5400937;26;20611;-75
2024/04/13 03:33:19;;;;;;;10.80;9.10;;;;;;;11.91;79.46;154418.97;5403828;26;20610;-76
2024/04/13 03:35:47;;;;;;;10.47;9.47;;;;;;;11.92;79.30;154421.53;5398104;26;20549;-75
2024/04/13 03:38:16;;;;;;;10.23;9.33;;;;;;;11.89;79.90;154413.75;5374850;26;20733;-76
2024/04/13 03:40:44;;;;;;;9.90;8.23;;;;;;;11.84;79.83;154400.78;5437281;26;21119;-75
2024/04/13 03:43:15;;;;;;;10.90;9.43;;;;;;;11.84;80.25;154399.50;5428084;26;21076;-76
2024/04/13 03:45:41;;;;;;;8.70;7.77;;;;;;;11.78;80.22;154385.22;5366087;26;20992;-76
2024/04/13 03:48:10;;;;;;;13.73;9.17;;;;;;;11.77;80.40;154382.66;5380142;26;20515;-76
2024/04/13 03:50:41;;;;;;;11.60;7.77;;;;;;;11.79;80.28;154386.53;5382643;26;20804;-75
2024/04/13 03:53:07;;;;;;;10.60;8.23;;;;;;;11.79;79.91;154386.53;5388700;26;20531;-76
2024/04/13 03:55:35;;;;;;;8.53;7.73;;;;;;;11.76;80.02;154380.06;5431632;26;20522;-76
2024/04/13 03:58:00;;;;;;;8.70;7.90;;;;;;;11.74;79.31;154374.88;5406753;26;20246;-76
2024/04/13 04:00:31;;;;;;;8.93;8.03;;;;;;;11.73;80.24;154372.28;5407840;26;20501;-75
2024/04/13 04:02:57;;;;;;;9.57;7.63;;;;;;;11.72;80.21;154369.72;5379919;26;20298;-76
2024/04/13 04:05:27;;;;;;;8.83;7.93;;;;;;;11.69;80.22;154361.94;5374227;26;20476;-76
2024/04/13 04:07:52;;;;;;;8.13;7.33;;;;;;;11.66;80.30;154354.09;5410495;26;20251;-76
2024/04/13 04:10:21;;;;;;;11.03;7.67;;;;;;;11.66;80.22;154354.09;5376405;26;20461;-75
2024/04/13 04:12:46;;;;;;;9.00;6.90;;;;;;;11.66;80.21;154352.78;5381626;26;20262;-75
2024/04/13 04:15:15;;;;;;;11.60;8.00;;;;;;;11.66;80.50;154352.78;5432645;26;20459;-76
2024/04/13 04:17:43;;;;;;;9.50;7.20;;;;;;;11.66;80.88;154354.09;5422773;26;20570;-75
2024/04/13 04:20:13;;;;;;;8.50;7.50;;;;;;;11.64;80.63;154348.94;5410471;26;21022;-75
2024/04/13 04:22:39;;;;;;;8.10;7.10;;;;;;;11.65;80.70;154351.50;5379434;26;20473;-76
2024/04/13 04:25:08;;;;;;;9.63;8.40;;;;;;;11.66;80.80;154352.78;5382218;26;20465;-75
2024/04/13 04:27:34;;;;;;;8.67;7.53;;;;;;;11.63;80.89;154346.31;5374245;26;20806;-75
2024/04/13 04:30:02;;;;;;;8.50;7.57;;;;;;;11.59;80.81;154337.28;5409453;26;20455;-76
2024/04/13 04:32:27;;;;;;;9.20;7.40;;;;;;;11.60;81.21;154339.84;5436613;26;20371;-76
2024/04/13 04:34:58;;;;;;;9.47;7.40;;;;;;;11.57;81.40;154330.75;5428360;26;20492;-76
2024/04/13 04:37:24;;;;;;;8.47;7.53;;;;;;;11.54;81.39;154324.28;5413509;26;20347;-76
2024/04/13 04:39:52;;;;;;;12.27;8.60;;;;;;;11.51;81.37;154316.53;5408223;26;20862;-75
2024/04/13 04:42:21;;;;;;;9.00;8.10;;;;;;;11.50;81.41;154312.63;5409016;26;20247;-76
2024/04/13 04:44:49;;;;;;;9.60;8.60;;;;;;;11.47;82.02;154304.84;5397671;26;20960;-78
2024/04/13 04:47:15;;;;;;;8.37;7.57;;;;;;;11.48;82.27;154307.47;5420190;26;20472;-78
2024/04/13 04:49:43;;;;;;;9.17;8.37;;;;;;;11.47;82.54;154306.16;5428392;26;20627;-76
2024/04/13 04:52:11;;;;;;;11.80;9.13;;;;;;;11.49;82.74;154310.06;5412950;26;20251;-76
2024/04/13 04:54:39;;;;;;;10.73;9.00;;;;;;;11.52;82.67;154317.81;5390528;26;21024;-77
2024/04/13 04:57:05;;;;;;;10.40;8.90;;;;;;;11.53;82.88;154320.41;5421667;26;20459;-77
2024/04/13 04:59:33;;;;;;;9.13;7.50;;;;;;;11.53;82.98;154320.41;5390560;26;20806;-76
2024/04/13 05:01:59;;;;;;;11.47;9.40;;;;;;;11.50;83.36;154313.94;5425799;26;20791;-76
2024/04/13 05:04:27;;;;;;;12.80;8.03;;;;;;;11.50;83.51;154312.63;5406049;26;20472;-77
2024/04/13 05:06:53;;;;;;;10.70;8.20;;;;;;;11.49;83.62;154310.06;5421452;26;20262;-76
2024/04/13 05:09:24;;;;;;;10.00;9.00;;;;;;;11.54;83.44;154323.03;5429173;26;20843;-76
2024/04/13 05:11:50;;;;;;;12.33;8.30;;;;;;;11.56;83.27;154329.50;5398402;26;20788;-75
2024/04/13 05:14:19;;;;;;;12.23;7.53;;;;;;;11.58;83.01;154333.38;5422400;26;20482;-75
2024/04/13 05:16:46;;;;;;;10.20;8.00;;;;;;;11.60;82.87;154338.53;5393470;26;20289;-75
2024/04/13 05:19:15;;;;;;;10.37;8.20;;;;;;;11.59;83.04;154337.28;5363484;26;20519;-76
2024/04/13 05:21:40;;;;;;;8.80;7.83;;;;;;;11.61;82.97;154341.16;5419098;26;20460;-75
2024/04/13 05:24:09;;;;;;;8.10;7.10;;;;;;;11.63;83.32;154346.31;5421973;26;20469;-76
2024/04/13 05:26:37;;;;;;;7.90;7.10;;;;;;;11.64;83.33;154348.94;5417202;26;20254;-81
2024/04/13 05:29:05;;;;;;;9.43;8.03;;;;;;;11.68;83.28;154359.28;5423729;26;20461;-80
2024/04/13 05:31:31;;;;;;;8.97;8.07;;;;;;;11.75;82.91;154377.50;5418814;26;20784;-80
2024/04/13 05:33:59;;;;;;;10.03;8.60;;;;;;;11.82;82.66;154395.63;5393494;26;20538;-79
2024/04/13 05:36:25;;;;;;;12.67;8.70;;;;;;;11.85;82.67;154403.41;5421932;26;20284;-75
2024/04/13 05:38:53;;;;;;;9.70;8.60;;;;;;;11.87;82.86;154407.28;5416440;26;20531;-75
2024/04/13 05:41:19;;;;;;;9.90;8.90;;;;;;;11.92;82.69;154421.53;5418910;26;20578;-76
2024/04/13 05:43:49;;;;;;;17.70;8.70;;;;;;;12.05;82.94;154453.94;5426376;26;20528;-77
2024/04/13 05:46:15;;;;;;;9.63;8.60;;;;;;;12.28;82.27;154513.59;5394933;26;20575;-76
2024/04/13 05:48:43;;;;;;;11.97;8.50;;;;;;;12.54;81.78;154579.72;5429787;26;20561;-76
2024/04/13 05:51:09;;;;;;;10.00;8.70;;;;;;;12.79;80.85;154644.53;5412406;26;20656;-76
2024/04/13 05:53:38;;;;;;;9.00;8.10;;;;;;;12.94;79.15;154683.50;5426492;26;20509;-76
2024/04/13 05:56:04;;;;;;;11.93;8.63;;;;;;;13.15;79.07;154736.72;5425996;26;20783;-76
2024/04/13 05:58:32;;;;;;;10.57;9.13;;;;;;;13.43;78.46;154810.66;5389658;26;20833;-76
2024/04/13 06:01:01;;;;;;;10.20;9.20;;;;;;;13.79;76.82;154902.78;5422868;26;20507;-76
2024/04/13 06:03:29;;;;;;;9.47;8.57;;;;;;;14.15;75.46;154995.00;5396023;26;21145;-76
2024/04/13 06:05:55;;;;;;;9.23;7.50;;;;;;;14.47;74.38;155076.84;5420870;26;21053;-76
2024/04/13 06:08:23;;;;;;;10.20;8.13;;;;;;;14.71;73.30;155137.91;5421848;26;20469;-76
2024/04/13 06:10:48;;;;;;;8.83;7.93;;;;;;;14.95;72.64;155200.25;5368940;26;20605;-76
2024/04/13 06:13:17;;;;;;;10.13;7.73;;;;;;;15.20;70.78;155265.19;5423627;26;20471;-75
2024/04/13 06:15:43;;;;;;;9.00;8.10;;;;;;;15.46;69.89;155331.56;5421389;26;20578;-76
2024/04/13 06:18:14;;;;;;;9.20;7.93;;;;;;;15.73;69.04;155403.03;5421711;26;20845;-76
2024/04/13 06:20:39;;;;;;;9.40;7.70;;;;;;;15.89;68.12;155442.00;5395704;26;21006;-75
2024/04/13 06:23:08;;;;;;;10.20;7.37;;;;;;;16.06;66.63;155486.25;5420757;26;20517;-76
2024/04/13 06:25:33;;;;;;;7.07;6.37;;;;;;;16.12;65.57;155501.88;5396405;26;21206;-76
2024/04/13 06:28:01;;;;;;;9.70;7.20;;;;;;;16.17;65.65;155514.88;5394804;26;20473;-76
2024/04/13 06:30:27;;;;;;;8.40;7.60;;;;;;;16.27;65.05;155540.84;5422357;26;20310;-76
2024/04/13 06:32:56;;;;;;;7.87;7.10;;;;;;;16.43;65.04;155583.78;5422713;26;20469;-76
2024/04/13 06:35:24;;;;;;;7.43;6.73;;;;;;;16.62;64.63;155630.66;5422407;26;20273;-76
2024/04/13 06:37:52;;;;;;;8.10;7.27;;;;;;;16.81;63.41;155681.38;5394888;26;20582;-76
2024/04/13 06:40:18;;;;;;;11.00;7.43;;;;;;;17.00;62.48;155730.81;5423578;26;20451;-76
2024/04/13 06:42:46;;;;;;;8.80;7.53;;;;;;;17.14;62.04;155764.66;5415230;26;21003;-76
2024/04/13 06:45:11;;;;;;;8.03;7.33;;;;;;;17.23;61.50;155788.09;5422196;26;20281;-77
2024/04/13 06:47:40;;;;;;;8.90;7.70;;;;;;;17.35;61.23;155819.31;5389912;26;20558;-78
2024/04/13 06:50:06;;;;;;;10.33;7.53;;;;;;;17.47;60.80;155850.56;5425908;26;20258;-78
2024/04/13 06:52:37;;;;;;;8.87;7.97;;;;;;;17.63;61.01;155893.53;5425655;26;20525;-78
2024/04/13 06:55:03;;;;;;;8.33;7.43;;;;;;;17.81;60.70;155939.16;5420705;26;20464;-78
2024/04/13 06:57:34;;;;;;;8.03;7.33;;;;;;;17.94;60.28;155973.00;5427406;26;21056;-77
2024/04/13 06:59:59;;;;;;;9.07;8.17;;;;;;;18.06;59.58;156004.22;5417214;26;20234;-77
2024/04/13 07:02:28;;;;;;;8.93;7.60;;;;;;;18.16;59.68;156029.00;5423297;26;20839;-77
2024/04/13 07:04:54;;;;;;;8.80;7.90;;;;;;;18.27;59.52;156058.91;5364628;26;20294;-77
2024/04/13 07:07:22;;;;;;;7.67;6.97;;;;;;;18.31;58.84;156066.75;5424787;26;20468;-77
2024/04/13 07:09:51;;;;;;;8.30;7.50;;;;;;;18.42;58.79;156096.72;5421483;26;20266;-77
2024/04/13 07:12:19;;;;;;;8.27;7.50;;;;;;;18.57;58.32;156134.53;5423434;26;20475;-77
2024/04/13 07:14:45;;;;;;;8.63;7.57;;;;;;;18.81;58.56;156198.38;5424451;26;20475;-78
2024/04/13 07:17:13;;;;;;;9.73;7.30;;;;;;;18.96;57.81;156236.13;5422928;26;21218;-78
2024/04/13 07:19:39;;;;;;;8.57;6.83;;;;;;;19.10;57.64;156272.63;5420633;26;20335;-77
2024/04/13 07:22:07;;;;;;;9.23;7.53;;;;;;;19.35;56.72;156336.50;5420267;26;20476;-78
2024/04/13 07:24:33;;;;;;;7.73;6.43;;;;;;;19.56;55.52;156390.00;5389415;26;20740;-77
2024/04/13 07:27:03;;;;;;;11.27;7.43;;;;;;;19.78;55.18;156447.31;5369390;26;20824;-77
2024/04/13 07:29:29;;;;;;;7.47;6.77;;;;;;;19.96;54.32;156494.31;5423763;26;20295;-77
2024/04/13 07:31:57;;;;;;;8.93;6.80;;;;;;;20.17;53.76;156549.06;5417273;26;20455;-77
2024/04/13 07:34:23;;;;;;;7.37;6.67;;;;;;;20.28;53.98;156577.78;5417870;26;20250;-78
2024/04/13 07:36:51;;;;;;;7.33;6.40;;;;;;;20.35;53.21;156596.06;5392526;26;21062;-78
2024/04/13 07:39:17;;;;;;;8.30;6.20;;;;;;;20.41;53.51;156611.69;5420430;26;20265;-79
2024/04/13 07:42:02;;;;;;;7.10;6.50;;;;;;;20.59;52.77;156657.38;5475953;25;20671;-79
2024/04/13 07:44:28;;;;;;;8.40;6.40;;;;;;;20.80;52.47;156712.16;5446515;26;20530;-79
2024/04/13 07:46:56;;;;;;;7.03;6.00;;;;;;;20.87;52.40;156729.09;5471557;26;20526;-80
2024/04/13 07:49:22;;;;;;;6.27;5.33;;;;;;;21.01;51.45;156765.66;5471083;26;20788;-79
2024/04/13 07:51:50;;;;;;;5.90;5.40;;;;;;;21.08;50.42;156783.97;5471608;26;20782;-79
2024/04/13 07:54:16;;;;;;;6.37;5.20;;;;;;;21.19;50.67;156812.69;5447039;26;20547;-79
2024/04/13 07:56:44;;;;;;;6.10;5.37;;;;;;;21.40;50.68;156866.19;5471681;25;20513;-79
2024/04/13 07:59:12;;;;;;;7.80;6.13;;;;;;;21.61;49.89;156922.31;5469997;26;20257;-80
2024/04/13 08:01:41;;;;;;;7.07;5.47;;;;;;;21.65;49.21;156931.47;5476611;25;20523;-79
2024/04/13 08:04:07;;;;;;;7.73;5.77;;;;;;;21.78;47.97;156966.75;5467690;26;20463;-80
2024/04/13 08:06:36;;;;;;;5.70;5.10;;;;;;;21.92;48.52;157002.03;5472452;26;20507;-79
2024/04/13 08:09:02;;;;;;;5.83;5.23;;;;;;;21.96;48.88;157011.16;5505102;25;20761;-79
2024/04/13 08:11:31;;;;;;;6.13;5.53;;;;;;;22.07;47.50;157039.88;5475185;26;20858;-78
2024/04/13 08:13:58;;;;;;;5.73;4.97;;;;;;;22.24;48.09;157084.31;5476825;26;20501;-79
2024/04/13 08:16:29;;;;;;;5.63;4.87;;;;;;;22.33;48.31;157107.78;5474841;25;20515;-79
2024/04/13 08:18:54;;;;;;;6.40;5.00;;;;;;;22.39;47.68;157123.47;5477890;26;20459;-79
2024/04/13 08:21:22;;;;;;;6.17;5.53;;;;;;;22.45;47.21;157139.16;5471522;26;20565;-79
2024/04/13 08:23:48;;;;;;;5.13;4.63;;;;;;;22.53;47.02;157160.03;5464513;26;21089;-78
2024/04/13 08:26:16;;;;;;;8.17;5.60;;;;;;;22.60;46.03;157178.34;5474602;26;20470;-78
2024/04/13 08:28:42;;;;;;;5.80;5.20;;;;;;;22.68;46.17;157197.97;5471350;26;20248;-79
2024/04/13 08:31:10;;;;;;;6.10;5.00;;;;;;;22.75;47.54;157217.56;5469824;25;21107;-79
2024/04/13 08:33:38;;;;;;;5.50;5.00;;;;;;;22.79;45.27;157228.06;5473414;26;20264;-78
2024/04/13 08:36:08;;;;;;;5.73;4.80;;;;;;;22.86;45.39;157246.31;5478002;25;20474;-79
2024/04/13 08:38:34;;;;;;;6.53;4.90;;;;;;;22.97;45.32;157275.09;5477121;26;20482;-79
2024/04/13 08:41:05;;;;;;;7.70;5.13;;;;;;;22.93;45.07;157264.59;5447630;26;21001;-79
2024/04/13 08:43:30;;;;;;;7.97;5.07;;;;;;;22.96;44.63;157272.44;5438873;26;20534;-79
2024/04/13 08:46:03;;;;;;;7.17;5.00;;;;;;;23.06;45.38;157297.25;5442838;26;20533;-80
2024/04/13 08:48:29;;;;;;;6.57;4.60;;;;;;;23.10;44.12;157306.41;5438436;26;20250;-78
2024/04/13 08:51:01;;;;;;;5.40;4.90;;;;;;;23.16;44.06;157322.13;5432798;26;20466;-80
2024/04/13 08:53:28;;;;;;;7.97;5.20;;;;;;;23.12;45.12;157311.63;5396085;26;20507;-79
2024/04/13 08:55:57;;;;;;;6.33;5.67;;;;;;;23.13;45.22;157314.28;5424744;26;20566;-79
2024/04/13 08:58:23;;;;;;;6.00;5.50;;;;;;;23.06;45.74;157297.25;5414335;26;20512;-79
2024/04/13 09:00:55;;;;;;;6.20;4.33;;;;;;;23.15;47.35;157319.47;5414107;26;20473;-80
2024/04/13 09:03:21;;;;;;;5.10;4.40;;;;;;;23.18;46.06;157327.34;5365975;26;20269;-80
2024/04/13 09:05:50;;;;;;;4.97;4.17;;;;;;;23.20;46.59;157333.88;5422002;26;20471;-80
2024/04/13 09:08:19;;;;;;;4.13;3.70;;;;;;;23.17;45.78;157324.69;5419942;26;20455;-80
2024/04/13 09:10:51;;;;;;;3.73;3.43;;;;;;;23.00;43.35;157282.94;5392927;26;20519;-80
2024/04/13 09:13:16;;;;;;;7.73;4.10;;;;;;;22.86;44.79;157246.31;5421439;26;20586;-80
2024/04/13 09:15:45;;;;;;;6.87;3.33;;;;;;;22.91;44.95;157259.38;5413969;26;20583;-80
2024/04/13 09:18:11;;;;;;;3.60;3.30;;;;;;;22.96;46.87;157271.13;5415788;26;20249;-80
2024/04/13 09:20:40;;;;;;;7.93;3.70;;;;;;;22.94;45.61;157265.91;5422088;26;20455;-80
2024/04/13 09:23:06;;;;;;;4.50;3.27;;;;;;;22.94;45.87;157267.25;5421503;26;20508;-80
2024/04/13 09:25:37;;;;;;;4.33;3.17;;;;;;;22.82;45.10;157235.84;5443055;26;20461;-80
2024/04/13 09:28:03;;;;;;;3.97;3.40;;;;;;;22.63;46.10;157184.94;5421227;26;20519;-79
2024/04/13 09:30:34;;;;;;;4.47;4.07;;;;;;;22.60;45.71;157178.34;5414834;26;20465;-79
2024/04/13 09:33:00;;;;;;;4.30;3.90;;;;;;;22.48;45.35;157145.69;5444405;26;20461;-79
2024/04/13 09:35:29;;;;;;;6.27;3.07;;;;;;;22.49;47.10;157148.28;5422674;26;21103;-80
2024/04/13 09:37:56;;;;;;;4.43;4.03;;;;;;;22.64;47.40;157188.81;5416345;26;21011;-80
2024/04/13 09:40:24;;;;;;;5.70;3.90;;;;;;;22.60;46.64;157177.03;5442055;26;20500;-80
2024/04/13 09:42:52;;;;;;;5.50;4.20;;;;;;;22.51;46.16;157153.50;5421847;26;20459;-80
2024/04/13 09:45:23;;;;;;;5.40;3.30;;;;;;;22.20;45.72;157073.84;5425478;26;20469;-80
2024/04/13 09:47:51;;;;;;;6.60;4.13;;;;;;;22.20;47.48;157073.84;5417079;26;20915;-80
2024/04/13 09:50:20;;;;;;;5.27;4.20;;;;;;;22.25;47.33;157086.91;5418326;26;21081;-78
2024/04/13 09:52:46;;;;;;;4.43;3.80;;;;;;;22.26;47.00;157090.84;5390994;26;20465;-80
2024/04/13 09:55:14;;;;;;;4.30;3.90;;;;;;;22.22;46.42;157080.38;5415332;26;20806;-80
2024/04/13 09:57:41;;;;;;;3.60;3.30;;;;;;;22.19;47.64;157072.53;5423949;26;20328;-79
2024/04/13 10:00:13;;;;;;;4.53;4.00;;;;;;;22.29;48.01;157098.63;5418906;26;20464;-77
2024/04/13 10:02:39;;;;;;;4.70;3.47;;;;;;;22.39;46.99;157124.81;5413508;26;20461;-77
2024/04/13 10:05:08;;;;;;;4.97;3.73;;;;;;;22.27;47.08;157092.13;5420687;26;20512;-77
2024/04/13 10:07:34;;;;;;;14.50;4.50;;;;;;;22.41;47.13;157128.69;5417657;26;20242;-78
2024/04/13 10:10:05;;;;;;;4.80;3.70;;;;;;;22.45;46.35;157139.16;5418937;26;21012;-78
2024/04/13 10:12:37;;;;;;;6.20;4.07;;;;;;;22.39;46.68;157124.81;5392881;26;20459;-78
2024/04/13 10:15:06;;;;;;;5.43;4.10;;;;;;;22.34;48.03;157110.44;5419406;26;20567;-78
2024/04/13 10:17:36;;;;;;;5.30;4.80;;;;;;;22.34;46.11;157110.44;5420008;26;20476;-77
2024/04/13 10:20:04;;;;;;;8.53;4.27;;;;;;;22.22;47.17;157079.06;5420103;26;20471;-77
2024/04/13 10:22:33;;;;;;;4.50;3.30;;;;;;;22.29;48.66;157097.38;5417214;26;20916;-77
2024/04/13 10:25:06;;;;;;;3.83;3.40;;;;;;;22.45;47.74;157140.44;5421882;26;20512;-78
2024/04/13 10:27:33;;;;;;;4.63;2.90;;;;;;;22.61;47.02;157180.94;5412377;26;20472;-77
2024/04/13 10:30:02;;;;;;;5.77;3.60;;;;;;;22.67;47.15;157196.66;5423063;26;20467;-77
2024/04/13 10:32:28;;;;;;;3.20;2.90;;;;;;;22.77;46.47;157221.53;5421875;26;22069;-76
2024/04/13 10:35:09;;;;;;;4.00;3.60;;;;;;;22.84;45.91;157239.78;5415256;26;20515;-77
2024/04/13 10:37:35;;;;;;;3.97;3.50;;;;;;;22.88;45.21;157251.53;5420664;26;20281;-77
2024/04/13 10:40:05;;;;;;;5.70;3.30;;;;;;;22.89;45.85;157254.16;5415134;26;20532;-77
2024/04/13 10:42:35;;;;;;;3.47;3.17;;;;;;;22.95;47.18;157269.81;5415988;26;20851;-77
2024/04/13 10:45:04;;;;;;;4.20;3.80;;;;;;;23.08;46.80;157301.22;5419536;26;20476;-77
2024/04/13 10:47:30;;;;;;;3.30;3.00;;;;;;;23.13;46.59;157314.28;5411832;26;20532;-77
2024/04/13 10:50:01;;;;;;;6.70;4.00;;;;;;;23.22;46.18;157337.81;5454325;26;20483;-78
2024/04/13 10:52:27;;;;;;;5.53;3.70;;;;;;;23.26;45.19;157348.25;5423658;26;20470;-78
2024/04/13 10:54:59;;;;;;;4.33;3.30;;;;;;;23.27;45.68;157350.88;5405584;26;21040;-77
2024/04/13 10:57:26;;;;;;;5.47;3.70;;;;;;;23.35;45.41;157373.06;5407955;26;20242;-78
2024/04/13 11:03:51;;;;;;;4.47;3.10;;;;;;;23.41;44.06;157388.81;5310402;26;22535;-78
2024/04/13 11:06:19;;;;;;;3.97;2.80;;;;;;;23.29;44.19;157356.09;5416011;26;20463;-78
2024/04/13 11:08:47;;;;;;;3.23;2.90;;;;;;;23.31;44.06;157361.31;5417346;26;21030;-78
2024/04/13 11:11:13;;;;;;;4.07;2.73;;;;;;;23.32;43.66;157365.25;5423010;26;20465;-78
2024/04/13 11:13:41;;;;;;;3.33;2.77;;;;;;;23.39;43.76;157383.59;5416706;26;20603;-78
2024/04/13 11:16:08;;;;;;;3.40;2.57;;;;;;;23.41;42.67;157388.81;5398618;26;20555;-78
2024/04/13 11:18:36;;;;;;;2.77;2.57;;;;;;;23.40;42.90;157386.22;5419224;26;21146;-78
2024/04/13 11:21:04;;;;;;;3.73;2.93;;;;;;;23.40;43.33;157384.91;5446879;26;20481;-78
2024/04/13 11:23:42;;;;;;;5.60;3.27;;;;;;;23.46;43.48;157400.56;5419234;26;20529;-79
2024/04/13 11:26:08;;;;;;;4.00;2.83;;;;;;;23.47;43.98;157404.50;5417928;26;20517;-78
2024/04/13 11:28:36;;;;;;;3.43;3.13;;;;;;;23.54;43.36;157421.47;5422258;26;20969;-78
2024/04/13 11:31:02;;;;;;;3.33;3.03;;;;;;;23.55;43.82;157425.41;5418753;26;20276;-78